Time;durP1;ratioP1;P1;durP2;ratioP2;P2;SDS_P1;SDS_P2;PMS_P1;PMS_P2;Temp;Humidity;BMP_temperature;BMP_pressure;BME280_temperature;BME280_humidity;BME280_pressure;Samples;Min_cycle;Max_cycle;Signal;HPM_P1;HPM_P2
2021/01/04 00:01:38;;;;;;;5.68;2.15;;;4.40;99.90;;;;;;4988034;28;20623;-78
2021/01/04 00:04:27;;;;;;;5.45;1.80;;;4.40;99.90;;;;;;5005474;28;20053;-79
2021/01/04 00:07:08;;;;;;;4.45;1.27;;;4.40;99.90;;;;;;4988259;28;20471;-80
2021/01/04 00:09:39;;;;;;;4.30;1.92;;;4.40;99.90;;;;;;5005637;28;20046;-80
2021/01/04 00:12:32;;;;;;;4.03;1.58;;;4.40;99.90;;;;;;5006005;28;20034;-80
2021/01/04 00:15:08;;;;;;;2.10;1.42;;;4.40;99.90;;;;;;4983360;28;20037;-82
2021/01/04 00:17:46;;;;;;;5.30;2.30;;;4.50;99.90;;;;;;4989812;28;20038;-79
2021/01/04 00:20:51;;;;;;;5.85;1.67;;;4.50;99.90;;;;;;5009888;28;20022;-79
2021/01/04 00:23:26;;;;;;;16.15;2.05;;;4.50;99.90;;;;;;4994998;28;20045;-80
2021/01/04 00:26:02;;;;;;;;;;;4.50;99.90;;;;;;5010151;28;20118;-81
2021/01/04 00:28:31;;;;;;;3.63;2.22;;;4.50;99.90;;;;;;5009551;28;20353;-79
2021/01/04 00:31:03;;;;;;;6.22;1.92;;;4.50;99.90;;;;;;5009471;28;20054;-79
2021/01/04 00:33:42;;;;;;;2.45;1.75;;;4.50;99.90;;;;;;4992010;28;20054;-80
2021/01/04 00:36:24;;;;;;;8.95;2.40;;;4.50;99.90;;;;;;4991657;28;20114;-79
2021/01/04 00:39:17;;;;;;;6.38;2.47;;;4.50;99.90;;;;;;5009531;28;20034;-79
2021/01/04 00:42:10;;;;;;;5.03;1.85;;;4.50;99.90;;;;;;4992019;28;20428;-80
2021/01/04 00:45:04;;;;;;;5.28;2.03;;;4.50;99.90;;;;;;5008003;28;20096;-79
2021/01/04 00:47:53;;;;;;;2.65;1.33;;;4.50;99.90;;;;;;5008949;28;20034;-80
2021/01/04 00:50:45;;;;;;;3.97;1.30;;;4.60;99.90;;;;;;5008965;28;20165;-78
2021/01/04 00:53:30;;;;;;;6.03;0.93;;;4.50;99.90;;;;;;5009484;28;20026;-79
2021/01/04 00:56:15;;;;;;;5.32;2.13;;;4.50;99.90;;;;;;5009000;28;20060;-77
2021/01/04 00:58:40;;;;;;;;;;;4.60;99.90;;;;;;4991678;28;20042;-80
2021/01/04 01:01:13;;;;;;;2.53;1.30;;;4.50;99.90;;;;;;4991581;28;19994;-78
2021/01/04 01:03:58;;;;;;;5.40;1.73;;;4.50;99.90;;;;;;4991465;28;20058;-80
2021/01/04 01:06:26;;;;;;;2.42;1.20;;;4.50;99.90;;;;;;4991311;28;20274;-78
2021/01/04 01:08:54;;;;;;;2.85;1.60;;;4.50;99.90;;;;;;5011801;28;20038;-81
2021/01/04 01:11:51;;;;;;;2.97;1.35;;;4.50;99.90;;;;;;4992889;28;20026;-81
2021/01/04 01:14:40;;;;;;;3.97;1.30;;;4.50;99.90;;;;;;4991171;28;20386;-80
2021/01/04 01:17:43;;;;;;;3.28;1.98;;;4.50;99.90;;;;;;4991266;28;20157;-81
2021/01/04 01:20:16;;;;;;;2.38;1.00;;;4.60;99.90;;;;;;5008593;28;21214;-80
2021/01/04 01:22:43;;;;;;;4.72;1.60;;;4.60;99.90;;;;;;4991583;28;20034;-77
2021/01/04 01:25:13;;;;;;;6.03;1.52;;;4.60;99.90;;;;;;5007298;28;20038;-82
2021/01/04 01:28:02;;;;;;;3.63;1.60;;;4.60;99.90;;;;;;4990712;28;20022;-79
2021/01/04 01:30:52;;;;;;;1.30;1.20;;;4.60;99.90;;;;;;5008711;28;20089;-78
2021/01/04 01:33:45;;;;;;;11.73;1.60;;;4.60;99.90;;;;;;4990721;28;20026;-79
2021/01/04 01:36:40;;;;;;;4.93;1.50;;;4.60;99.90;;;;;;5008872;28;20041;-78
2021/01/04 01:39:24;;;;;;;3.30;1.40;;;4.60;99.90;;;;;;5007328;28;20046;-78
2021/01/04 01:42:20;;;;;;;9.88;2.28;;;4.60;99.90;;;;;;4990837;28;20100;-81
2021/01/04 01:45:11;;;;;;;2.20;1.05;;;4.60;99.90;;;;;;4991091;28;20022;-81
2021/01/04 01:47:42;;;;;;;3.95;1.70;;;4.60;99.90;;;;;;4990557;28;20031;-80
2021/01/04 01:50:12;;;;;;;2.67;1.25;;;4.60;99.90;;;;;;5008158;28;20106;-79
2021/01/04 01:52:44;;;;;;;5.57;1.52;;;4.60;99.90;;;;;;5008160;28;20026;-78
2021/01/04 01:55:19;;;;;;;2.90;1.60;;;4.60;99.90;;;;;;5008071;28;20424;-78
2021/01/04 01:58:18;;;;;;;3.75;1.83;;;4.60;99.90;;;;;;4990672;28;20125;-81
2021/01/04 02:00:57;;;;;;;3.90;1.15;;;4.60;99.90;;;;;;5008206;28;20097;-80
2021/01/04 02:04:00;;;;;;;6.90;1.10;;;4.60;99.90;;;;;;5007556;28;20046;-79
2021/01/04 02:06:46;;;;;;;1.95;1.20;;;4.60;99.90;;;;;;4990347;28;20141;-80
2021/01/04 02:09:21;;;;;;;1.38;0.88;;;4.70;99.90;;;;;;5007754;28;20027;-81
2021/01/04 02:12:18;;;;;;;3.42;1.45;;;4.60;99.90;;;;;;5007966;28;20123;-79
2021/01/04 02:15:04;;;;;;;3.75;1.60;;;4.60;99.90;;;;;;4981532;28;20042;-80
2021/01/04 02:17:53;;;;;;;2.10;1.30;;;4.70;99.90;;;;;;4990182;28;20053;-79
2021/01/04 02:20:46;;;;;;;4.32;0.95;;;4.70;99.90;;;;;;4990087;28;20030;-80
2021/01/04 02:23:42;;;;;;;4.07;1.35;;;4.70;99.90;;;;;;4989710;28;20034;-80
2021/01/04 02:26:17;;;;;;;1.50;1.00;;;4.70;99.90;;;;;;5007596;28;20034;-80
2021/01/04 02:29:03;;;;;;;5.75;1.75;;;4.80;99.90;;;;;;4989757;28;20054;-81
2021/01/04 02:31:31;;;;;;;3.85;1.40;;;4.70;99.90;;;;;;4989839;28;20038;-80
2021/01/04 02:33:58;;;;;;;3.65;1.70;;;4.70;99.90;;;;;;4989856;28;20026;-79
2021/01/04 02:36:25;;;;;;;1.98;1.05;;;4.70;99.90;;;;;;5007206;28;20030;-78
2021/01/04 02:39:12;;;;;;;6.00;1.58;;;4.70;99.90;;;;;;4989762;28;20034;-80
2021/01/04 02:42:07;;;;;;;5.25;1.73;;;4.60;99.90;;;;;;4989455;28;20037;-78
2021/01/04 02:44:33;;;;;;;;;;;4.70;99.90;;;;;;4989861;28;20061;-79
2021/01/04 02:47:36;;;;;;;11.93;1.52;;;4.60;99.90;;;;;;4989807;28;19980;-78
2021/01/04 02:50:11;;;;;;;4.55;0.95;;;4.60;99.90;;;;;;4989268;28;20034;-77
2021/01/04 02:52:49;;;;;;;2.10;1.08;;;4.70;99.90;;;;;;5007024;28;20031;-79
2021/01/04 02:55:25;;;;;;;2.47;1.15;;;4.60;99.90;;;;;;4989891;28;20026;-82
2021/01/04 02:57:59;;;;;;;1.10;0.88;;;4.70;99.90;;;;;;5005545;28;20042;-79
2021/01/04 03:00:25;;;;;;;4.45;1.13;;;4.60;99.90;;;;;;4989563;28;20027;-80
2021/01/04 03:02:59;;;;;;;1.95;1.25;;;4.70;99.90;;;;;;4988651;28;20054;-80
2021/01/04 03:05:25;;;;;;;1.83;1.10;;;4.70;99.90;;;;;;4988806;28;20034;-80
2021/01/04 03:08:01;;;;;;;1.95;0.77;;;4.70;99.90;;;;;;5005812;28;20030;-81
2021/01/04 03:10:33;;;;;;;2.88;1.42;;;4.60;99.90;;;;;;5006851;28;20041;-79
2021/01/04 03:13:30;;;;;;;1.92;1.00;;;4.70;99.90;;;;;;5006667;28;20513;-80
2021/01/04 03:16:14;;;;;;;4.65;1.50;;;4.70;99.90;;;;;;4989164;28;20478;-78
2021/01/04 03:18:46;;;;;;;1.90;0.93;;;4.60;99.90;;;;;;5005857;28;20094;-80
2021/01/04 03:21:13;;;;;;;7.07;1.42;;;4.60;99.90;;;;;;4989071;28;20552;-80
2021/01/04 03:23:45;;;;;;;2.78;1.27;;;4.70;99.90;;;;;;4989110;28;20026;-82
2021/01/04 03:26:20;;;;;;;1.58;0.82;;;4.60;99.90;;;;;;5006484;28;20049;-80
2021/01/04 03:28:46;;;;;;;1.95;0.85;;;4.70;99.90;;;;;;4989237;28;20031;-81
2021/01/04 03:31:11;;;;;;;2.15;0.93;;;4.60;99.90;;;;;;4988957;28;20029;-81
2021/01/04 03:33:37;;;;;;;0.75;0.40;;;4.60;99.90;;;;;;5005915;28;20026;-79
2021/01/04 03:36:03;;;;;;;0.93;0.80;;;4.60;99.90;;;;;;4988998;28;20026;-80
2021/01/04 03:38:31;;;;;;;5.65;1.70;;;4.60;99.90;;;;;;4988585;28;20037;-79
2021/01/04 03:40:58;;;;;;;3.03;1.10;;;4.60;99.90;;;;;;4988683;28;20046;-80
2021/01/04 03:43:23;;;;;;;5.30;1.35;;;4.70;99.90;;;;;;5005016;28;20049;-79
2021/01/04 03:45:49;;;;;;;1.80;0.90;;;4.70;99.90;;;;;;4988530;28;20026;-80
2021/01/04 03:48:14;;;;;;;3.72;1.48;;;4.80;99.90;;;;;;5006347;28;20048;-77
2021/01/04 03:50:40;;;;;;;1.15;0.75;;;4.70;99.90;;;;;;5006284;28;20030;-79
2021/01/04 03:53:06;;;;;;;1.73;1.23;;;4.60;99.90;;;;;;5005940;28;20027;-76
2021/01/04 03:55:31;;;;;;;1.40;0.73;;;4.70;99.90;;;;;;4988438;28;20033;-80
2021/01/04 03:57:57;;;;;;;3.10;1.10;;;4.50;99.90;;;;;;5006001;28;20050;-77
2021/01/04 04:00:23;;;;;;;0.47;0.25;;;4.50;99.90;;;;;;5005540;28;20050;-79
2021/01/04 04:02:49;;;;;;;1.52;0.85;;;4.50;99.90;;;;;;5005664;28;20173;-78
2021/01/04 04:05:17;;;;;;;0.85;0.60;;;4.50;99.90;;;;;;5006392;28;20398;-79
2021/01/04 04:07:44;;;;;;;1.35;0.85;;;4.50;99.90;;;;;;5005750;28;20050;-78
2021/01/04 04:10:11;;;;;;;0.30;0.30;;;4.50;99.90;;;;;;4988651;28;20054;-77
2021/01/04 04:12:36;;;;;;;4.10;0.75;;;4.50;99.90;;;;;;4988193;28;20023;-77
2021/01/04 04:15:04;;;;;;;1.27;0.47;;;4.40;99.90;;;;;;5005705;28;20069;-79
2021/01/04 04:17:30;;;;;;;1.13;0.55;;;4.40;99.90;;;;;;4988119;28;20062;-78
2021/01/04 04:19:55;;;;;;;2.08;0.60;;;4.40;99.90;;;;;;5005710;28;20049;-79
2021/01/04 04:22:21;;;;;;;3.45;1.10;;;4.40;99.90;;;;;;4988332;28;20026;-81
2021/01/04 04:24:47;;;;;;;1.73;0.60;;;4.40;99.90;;;;;;4988550;28;20027;-81
2021/01/04 04:27:16;;;;;;;2.08;0.73;;;4.40;99.90;;;;;;5005986;28;20041;-79
2021/01/04 04:29:44;;;;;;;3.95;1.02;;;4.40;99.90;;;;;;4988032;28;20050;-81
2021/01/04 04:32:10;;;;;;;1.35;0.65;;;4.50;99.90;;;;;;5005736;28;20027;-79
2021/01/04 04:34:37;;;;;;;1.02;0.73;;;4.30;99.90;;;;;;5005370;28;20089;-81
2021/01/04 04:37:03;;;;;;;2.03;0.75;;;4.30;99.90;;;;;;4987943;28;20121;-77
2021/01/04 04:39:29;;;;;;;8.77;1.00;;;4.30;99.90;;;;;;4987857;28;20026;-79
2021/01/04 04:41:55;;;;;;;1.25;0.45;;;4.30;99.90;;;;;;4988147;28;20030;-80
2021/01/04 04:44:33;;;;;;;6.45;0.38;;;4.30;99.90;;;;;;5005727;28;20037;-79
2021/01/04 04:47:31;;;;;;;1.15;0.80;;;4.30;99.90;;;;;;4988167;28;20038;-79
2021/01/04 04:50:21;;;;;;;1.10;0.45;;;4.30;99.90;;;;;;4987791;28;20483;-81
2021/01/04 04:53:08;;;;;;;1.67;0.65;;;4.30;99.90;;;;;;5005729;28;20078;-77
2021/01/04 04:55:41;;;;;;;0.95;0.68;;;4.30;99.90;;;;;;4987848;28;20034;-79
2021/01/04 04:58:14;;;;;;;0.40;0.30;;;4.20;99.90;;;;;;4987896;28;20039;-80
2021/01/04 05:00:54;;;;;;;0.10;0.10;;;4.20;99.90;;;;;;5005786;28;20033;-78
2021/01/04 05:03:51;;;;;;;1.05;0.50;;;4.20;99.90;;;;;;5005969;28;20298;-79
2021/01/04 05:06:37;;;;;;;0.60;0.47;;;4.20;99.90;;;;;;5009436;28;20038;-81
2021/01/04 05:09:51;;;;;;;0.57;0.50;;;4.20;99.90;;;;;;5009011;28;20110;-80
2021/01/04 05:12:17;;;;;;;2.63;0.73;;;4.10;99.90;;;;;;4974024;28;20034;-80
2021/01/04 05:15:03;;;;;;;2.95;0.77;;;4.10;99.90;;;;;;4991702;28;20036;-80
2021/01/04 05:17:52;;;;;;;1.00;0.52;;;4.10;99.90;;;;;;4991169;28;20045;-81
2021/01/04 05:20:45;;;;;;;3.35;0.80;;;4.00;99.90;;;;;;4985925;28;20125;-82
2021/01/04 05:23:31;;;;;;;0.75;0.60;;;3.90;99.90;;;;;;5008343;28;20542;-82
2021/01/04 05:26:18;;;;;;;1.65;0.85;;;4.00;99.90;;;;;;5008663;28;20090;-81
2021/01/04 05:29:05;;;;;;;0.93;0.45;;;4.00;99.90;;;;;;4991265;28;20475;-78
2021/01/04 05:31:47;;;;;;;0.60;0.55;;;4.00;99.90;;;;;;4990791;28;20034;-77
2021/01/04 05:34:45;;;;;;;1.55;0.60;;;3.90;99.90;;;;;;4991063;28;20033;-79
2021/01/04 05:37:35;;;;;;;1.38;0.68;;;3.90;99.90;;;;;;4990478;28;20129;-80
2021/01/04 05:40:10;;;;;;;1.95;0.80;;;3.90;99.90;;;;;;4990980;28;20052;-79
2021/01/04 05:43:09;;;;;;;0.75;0.65;;;3.90;99.90;;;;;;4990688;28;20026;-79
2021/01/04 05:46:06;;;;;;;2.28;1.20;;;3.90;99.90;;;;;;4955706;28;20468;-79
2021/01/04 05:49:01;;;;;;;0.68;0.57;;;3.90;99.90;;;;;;4990748;28;20053;-82
2021/01/04 05:51:32;;;;;;;0.50;0.50;;;3.90;99.90;;;;;;4990718;28;20030;-80
2021/01/04 05:53:58;;;;;;;0.30;0.22;;;3.90;99.90;;;;;;4990555;28;20034;-78
2021/01/04 05:56:27;;;;;;;5.53;0.82;;;3.90;99.90;;;;;;5008078;28;20073;-80
2021/01/04 05:59:11;;;;;;;0.63;0.20;;;3.90;99.90;;;;;;4990355;28;20038;-81
2021/01/04 06:01:43;;;;;;;0.85;0.65;;;3.90;99.90;;;;;;4990544;28;20426;-81
2021/01/04 06:04:23;;;;;;;4.43;0.52;;;3.90;99.90;;;;;;4989829;28;20061;-80
2021/01/04 06:07:00;;;;;;;0.70;0.50;;;3.90;99.90;;;;;;5007808;28;20030;-80
2021/01/04 06:09:27;;;;;;;0.93;0.47;;;3.90;99.90;;;;;;4990457;28;20034;-80
2021/01/04 06:12:14;;;;;;;0.60;0.38;;;3.80;99.90;;;;;;4990270;28;20049;-79
2021/01/04 06:14:40;;;;;;;0.75;0.50;;;3.90;99.90;;;;;;5006690;28;20050;-80
2021/01/04 06:17:30;;;;;;;1.02;0.68;;;3.80;99.90;;;;;;5007781;28;20134;-82
2021/01/04 06:20:01;;;;;;;0.60;0.45;;;3.80;99.90;;;;;;4984456;28;20043;-80
2021/01/04 06:22:29;;;;;;;1.10;0.60;;;3.80;99.90;;;;;;4990146;28;20057;-79
2021/01/04 06:25:01;;;;;;;0.98;0.40;;;3.80;99.90;;;;;;5007675;28;20022;-79
2021/01/04 06:27:37;;;;;;;1.42;0.50;;;3.80;99.90;;;;;;4989874;28;20605;-80
2021/01/04 06:30:21;;;;;;;0.80;0.68;;;3.80;99.90;;;;;;4990112;28;20030;-79
2021/01/04 06:32:49;;;;;;;0.45;0.35;;;3.70;99.90;;;;;;4989597;28;20077;-82
2021/01/04 06:35:30;;;;;;;0.32;0.28;;;3.70;99.90;;;;;;5007382;28;20031;-80
2021/01/04 06:38:27;;;;;;;0.55;0.55;;;3.70;99.90;;;;;;4989869;28;20061;-78
2021/01/04 06:40:53;;;;;;;1.00;0.50;;;3.60;99.90;;;;;;5007138;28;20029;-82
2021/01/04 06:43:30;;;;;;;0.80;0.70;;;3.60;99.90;;;;;;4989706;28;20090;-79
2021/01/04 06:46:17;;;;;;;0.65;0.55;;;3.70;99.90;;;;;;4989736;28;20034;-78
2021/01/04 06:49:09;;;;;;;0.90;0.57;;;3.60;99.90;;;;;;4989490;28;20062;-80
2021/01/04 06:52:12;;;;;;;1.60;0.75;;;3.60;99.90;;;;;;5007231;28;20111;-79
2021/01/04 06:55:02;;;;;;;1.73;0.85;;;3.60;99.90;;;;;;4989335;28;20030;-79
2021/01/04 06:57:55;;;;;;;1.38;0.65;;;3.70;99.90;;;;;;5006687;28;20098;-80
2021/01/04 07:00:39;;;;;;;1.70;0.52;;;3.60;99.90;;;;;;5005664;28;20041;-80
2021/01/04 07:03:07;;;;;;;0.63;0.63;;;3.70;99.90;;;;;;5006255;28;20054;-81
2021/01/04 07:05:33;;;;;;;2.20;0.90;;;3.60;99.90;;;;;;5006945;28;20022;-80
2021/01/04 07:08:25;;;;;;;2.30;0.68;;;3.60;99.90;;;;;;4989390;28;20030;-81
2021/01/04 07:11:10;;;;;;;0.73;0.68;;;3.60;99.90;;;;;;4986921;28;20114;-77
2021/01/04 07:14:20;;;;;;;0.63;0.63;;;3.60;99.90;;;;;;5006494;28;20042;-78
2021/01/04 07:17:19;;;;;;;1.95;1.00;;;3.60;99.90;;;;;;5006342;28;20094;-77
2021/01/04 07:19:45;;;;;;;1.13;0.40;;;3.60;99.90;;;;;;4989039;28;20054;-77
2021/01/04 07:22:28;;;;;;;6.70;1.20;;;3.50;99.90;;;;;;4988890;28;20026;-77
2021/01/04 07:25:43;;;;;;;1.43;0.70;;;3.60;99.90;;;;;;5006183;28;20019;-78
2021/01/04 07:28:30;;;;;;;1.40;0.55;;;3.60;99.90;;;;;;4970030;28;20046;-76
2021/01/04 07:31:10;;;;;;;2.35;0.95;;;3.60;99.90;;;;;;4968747;28;20039;-79
2021/01/04 07:33:45;;;;;;;2.60;0.88;;;3.50;99.90;;;;;;4986135;28;20111;-77
2021/01/04 07:36:25;;;;;;;1.02;0.65;;;3.50;99.90;;;;;;4971895;28;20399;-78
2021/01/04 07:39:22;;;;;;;1.00;0.50;;;3.50;99.90;;;;;;4986000;28;20034;-76
2021/01/04 07:42:07;;;;;;;0.75;0.60;;;3.50;99.90;;;;;;4986300;28;20023;-76
2021/01/04 07:45:11;;;;;;;1.63;0.85;;;3.50;99.90;;;;;;4968495;28;20029;-79
2021/01/04 07:48:07;;;;;;;2.28;0.85;;;3.50;99.90;;;;;;4986026;28;20135;-79
2021/01/04 07:51:00;;;;;;;4.65;1.23;;;3.40;99.90;;;;;;4968242;28;20031;-77
2021/01/04 07:53:54;;;;;;;0.77;0.57;;;3.50;99.90;;;;;;4968587;28;20094;-79
2021/01/04 07:56:40;;;;;;;1.63;0.85;;;3.50;99.90;;;;;;4969130;28;20027;-77
2021/01/04 07:59:24;;;;;;;0.90;0.45;;;3.40;99.90;;;;;;4984409;28;20053;-77
2021/01/04 08:02:17;;;;;;;0.55;0.32;;;3.40;99.90;;;;;;4968208;28;20430;-78
2021/01/04 08:05:04;;;;;;;2.03;0.82;;;3.40;99.90;;;;;;4967990;28;20058;-77
2021/01/04 08:07:32;;;;;;;2.20;1.00;;;3.40;99.90;;;;;;4968423;28;20027;-76
2021/01/04 08:10:04;;;;;;;1.65;0.65;;;3.40;99.90;;;;;;4985709;28;20035;-75
2021/01/04 08:12:48;;;;;;;0.85;0.43;;;3.40;99.90;;;;;;4968331;28;20061;-76
2021/01/04 08:15:34;;;;;;;2.25;0.88;;;3.40;99.90;;;;;;4986096;28;20022;-77
2021/01/04 08:18:02;;;;;;;0.65;0.40;;;3.40;99.90;;;;;;4985110;28;20043;-77
2021/01/04 08:20:29;;;;;;;0.50;0.35;;;3.40;99.90;;;;;;4985609;28;20042;-76
2021/01/04 08:23:26;;;;;;;0.93;0.38;;;3.40;99.90;;;;;;4985457;28;20022;-78
2021/01/04 08:26:15;;;;;;;0.77;0.38;;;3.40;99.90;;;;;;4968185;28;20038;-76
2021/01/04 08:28:47;;;;;;;0.70;0.32;;;3.40;99.90;;;;;;4967196;28;20035;-77
2021/01/04 08:31:25;;;;;;;1.70;0.80;;;3.40;99.90;;;;;;4966639;28;20026;-77
2021/01/04 08:33:57;;;;;;;2.10;0.90;;;3.50;99.90;;;;;;4985264;28;20030;-77
2021/01/04 08:36:31;;;;;;;1.63;0.68;;;3.50;99.90;;;;;;4967832;28;20043;-77
2021/01/04 08:39:23;;;;;;;;;;;3.40;99.90;;;;;;4970330;28;20122;-77
2021/01/04 08:42:05;;;;;;;1.92;1.25;;;3.40;99.90;;;;;;4969749;28;19977;-77
2021/01/04 08:44:33;;;;;;;1.45;0.70;;;3.50;99.90;;;;;;4989430;28;20023;-77
2021/01/04 08:47:25;;;;;;;3.03;0.60;;;3.60;99.90;;;;;;4989301;28;20031;-77
2021/01/04 08:50:11;;;;;;;0.43;0.43;;;3.60;99.90;;;;;;4989212;28;20049;-78
2021/01/04 08:52:53;;;;;;;0.73;0.60;;;3.60;99.90;;;;;;4989113;28;20057;-77
2021/01/04 08:55:33;;;;;;;1.30;0.68;;;3.60;99.90;;;;;;4988827;28;20041;-76
2021/01/04 08:58:23;;;;;;;1.27;0.60;;;3.70;99.90;;;;;;4971786;28;20039;-76
2021/01/04 09:01:11;;;;;;;2.60;1.00;;;3.60;99.90;;;;;;4971367;28;20034;-77
2021/01/04 09:03:37;;;;;;;0.70;0.50;;;3.60;99.90;;;;;;4979627;28;20685;-75
2021/01/04 09:06:11;;;;;;;0.57;0.45;;;3.60;99.90;;;;;;4988729;28;20035;-75
2021/01/04 09:08:46;;;;;;;0.40;0.30;;;3.60;99.90;;;;;;4970769;28;20034;-76
2021/01/04 09:11:12;;;;;;;0.80;0.52;;;3.60;99.90;;;;;;4971120;28;20027;-76
2021/01/04 09:13:39;;;;;;;0.43;0.40;;;3.60;99.90;;;;;;4988514;28;20460;-77
2021/01/04 09:16:29;;;;;;;0.70;0.52;;;3.70;99.90;;;;;;4988002;28;20220;-77
2021/01/04 09:19:24;;;;;;;0.50;0.30;;;3.70;99.90;;;;;;4979384;28;20054;-74
2021/01/04 09:21:50;;;;;;;0.20;0.20;;;3.70;99.90;;;;;;4983594;28;20074;-77
2021/01/04 09:24:34;;;;;;;0.35;0.22;;;3.70;99.90;;;;;;4988287;28;20039;-78
2021/01/04 09:27:05;;;;;;;0.73;0.53;;;3.70;99.90;;;;;;4988357;28;20415;-77
2021/01/04 09:29:37;;;;;;;8.10;1.05;;;3.70;99.90;;;;;;4970198;28;20487;-76
2021/01/04 09:32:10;;;;;;;1.33;0.85;;;3.60;99.90;;;;;;4970771;28;20030;-75
2021/01/04 09:34:36;;;;;;;0.55;0.35;;;3.60;99.90;;;;;;4986935;28;20042;-76
2021/01/04 09:37:20;;;;;;;0.55;0.47;;;3.70;99.90;;;;;;4987741;28;20483;-76
2021/01/04 09:39:46;;;;;;;1.03;0.50;;;3.70;99.90;;;;;;4988886;28;20411;-76
2021/01/04 09:42:24;;;;;;;0.10;0.10;;;3.70;99.90;;;;;;4970826;28;20286;-75
2021/01/04 09:44:50;;;;;;;0.47;0.25;;;3.70;99.90;;;;;;4970599;28;20089;-76
2021/01/04 09:47:31;;;;;;;0.93;0.30;;;3.70;99.90;;;;;;4988525;28;20442;-77
2021/01/04 09:50:06;;;;;;;0.50;0.45;;;3.80;99.90;;;;;;4970354;28;20109;-77
2021/01/04 09:52:59;;;;;;;1.80;0.70;;;3.70;99.90;;;;;;4988152;28;20031;-78
2021/01/04 09:55:31;;;;;;;1.73;0.70;;;3.70;99.90;;;;;;4970502;28;20042;-78
2021/01/04 09:58:02;;;;;;;0.32;0.22;;;3.80;99.90;;;;;;4970294;28;20057;-77
2021/01/04 10:00:32;;;;;;;1.25;0.80;;;3.80;99.90;;;;;;4987602;28;20027;-78
2021/01/04 10:03:22;;;;;;;0.22;0.22;;;3.80;99.90;;;;;;4969567;28;20057;-77
2021/01/04 10:05:50;;;;;;;3.08;0.90;;;3.80;99.90;;;;;;4987751;28;20037;-78
2021/01/04 10:08:24;;;;;;;0.95;0.70;;;3.80;99.90;;;;;;4970744;28;20077;-78
2021/01/04 10:11:09;;;;;;;1.60;0.73;;;3.80;99.90;;;;;;4987507;28;20046;-78
2021/01/04 10:13:39;;;;;;;2.40;1.10;;;3.80;99.90;;;;;;4970509;28;20039;-77
2021/01/04 10:16:09;;;;;;;4.32;1.50;;;3.80;99.90;;;;;;4970031;28;20094;-78
2021/01/04 10:19:20;;;;;;;1.15;0.68;;;3.80;99.90;;;;;;4986949;28;20038;-79
2021/01/04 10:22:05;;;;;;;1.13;0.60;;;3.80;99.90;;;;;;4975214;28;20090;-77
2021/01/04 10:24:37;;;;;;;0.80;0.63;;;3.80;99.90;;;;;;4987471;28;20106;-77
2021/01/04 10:27:05;;;;;;;2.35;0.98;;;3.90;99.90;;;;;;4986957;28;20086;-78
2021/01/04 10:29:32;;;;;;;2.17;0.68;;;3.80;99.90;;;;;;4970060;28;20061;-79
2021/01/04 10:32:26;;;;;;;0.88;0.50;;;3.90;99.90;;;;;;4969479;28;20117;-79
2021/01/04 10:34:54;;;;;;;3.83;1.07;;;3.90;99.90;;;;;;4986459;28;20064;-78
2021/01/04 10:37:44;;;;;;;1.42;0.55;;;3.90;99.90;;;;;;4969635;28;20042;-78
2021/01/04 10:40:20;;;;;;;2.17;0.95;;;3.90;99.90;;;;;;4968499;28;20039;-77
2021/01/04 10:42:48;;;;;;;5.25;1.05;;;3.90;99.90;;;;;;4987739;28;20027;-78
2021/01/04 10:45:20;;;;;;;16.42;1.10;;;3.80;99.90;;;;;;4969290;28;20632;-78
2021/01/04 10:47:49;;;;;;;0.50;0.40;;;3.80;99.90;;;;;;4987128;28;20034;-78
2021/01/04 10:50:30;;;;;;;1.92;1.00;;;3.70;99.90;;;;;;4969136;28;20159;-79
2021/01/04 10:52:59;;;;;;;2.75;0.88;;;3.70;99.90;;;;;;4969031;28;20102;-80
2021/01/04 10:55:28;;;;;;;1.55;0.40;;;3.70;99.90;;;;;;4969331;28;20110;-78
2021/01/04 10:58:29;;;;;;;1.10;0.88;;;3.70;99.90;;;;;;4969225;28;20407;-78
2021/01/04 11:01:02;;;;;;;1.58;0.70;;;3.80;99.90;;;;;;4963438;28;20046;-79
2021/01/04 11:03:27;;;;;;;1.08;0.47;;;3.80;99.90;;;;;;5004296;28;20062;-78
2021/01/04 11:05:53;;;;;;;3.08;0.88;;;3.80;99.90;;;;;;5008339;28;20040;-79
2021/01/04 11:08:24;;;;;;;1.27;0.45;;;3.80;99.90;;;;;;5025697;28;20030;-81
2021/01/04 11:11:13;;;;;;;2.00;0.70;;;3.80;99.90;;;;;;5008052;28;20030;-79
2021/01/04 11:13:39;;;;;;;0.95;0.47;;;3.80;99.90;;;;;;5006368;28;20030;-78
2021/01/04 11:16:10;;;;;;;2.00;1.17;;;3.80;99.90;;;;;;5025821;28;20032;-78
2021/01/04 11:19:05;;;;;;;1.25;1.10;;;3.70;99.90;;;;;;5025347;28;20049;-79
2021/01/04 11:21:40;;;;;;;2.20;0.82;;;3.70;99.90;;;;;;4990669;28;20054;-78
2021/01/04 11:24:06;;;;;;;1.92;1.17;;;3.80;99.90;;;;;;5005694;28;20076;-78
2021/01/04 11:26:33;;;;;;;2.35;0.75;;;3.80;99.90;;;;;;4987268;28;20034;-80
2021/01/04 11:28:59;;;;;;;4.80;0.70;;;3.80;99.90;;;;;;4984134;28;20030;-78
2021/01/04 11:31:24;;;;;;;1.73;0.93;;;3.80;99.90;;;;;;4986197;28;20038;-78
2021/01/04 11:33:50;;;;;;;1.75;1.13;;;3.70;99.90;;;;;;4986954;28;20108;-78
2021/01/04 11:36:16;;;;;;;2.13;0.80;;;3.80;99.90;;;;;;5002163;28;20030;-78
2021/01/04 11:38:41;;;;;;;2.72;1.10;;;3.80;99.90;;;;;;4987936;28;20582;-77
2021/01/04 11:41:07;;;;;;;1.13;0.65;;;3.80;99.90;;;;;;4987508;28;20038;-78
2021/01/04 11:43:32;;;;;;;6.13;1.40;;;3.80;99.90;;;;;;5003114;28;20033;-77
2021/01/04 11:45:58;;;;;;;2.20;0.98;;;3.80;99.90;;;;;;5004527;28;20026;-78
2021/01/04 11:48:24;;;;;;;1.80;0.82;;;3.80;99.90;;;;;;4987709;28;20022;-78
2021/01/04 11:50:51;;;;;;;1.10;0.63;;;3.90;99.90;;;;;;4987446;28;20093;-79
2021/01/04 11:53:17;;;;;;;1.45;0.73;;;3.90;99.90;;;;;;4987857;28;20030;-76
2021/01/04 11:55:43;;;;;;;2.58;1.27;;;3.90;99.90;;;;;;4987873;28;20044;-77
2021/01/04 11:58:08;;;;;;;1.50;0.85;;;3.90;99.90;;;;;;4987379;28;20042;-77
2021/01/04 12:00:35;;;;;;;1.70;0.73;;;3.90;99.90;;;;;;5005185;28;20033;-78
2021/01/04 12:03:01;;;;;;;1.23;0.82;;;3.90;99.90;;;;;;4986014;28;20054;-79
2021/01/04 12:05:26;;;;;;;1.83;0.95;;;4.00;99.90;;;;;;4987104;28;20030;-79
2021/01/04 12:07:54;;;;;;;3.78;0.77;;;4.00;99.90;;;;;;5004463;28;20053;-78
2021/01/04 12:10:22;;;;;;;0.90;0.70;;;4.00;99.90;;;;;;4986238;28;20073;-77
2021/01/04 12:12:48;;;;;;;1.95;0.80;;;4.00;99.90;;;;;;5003058;28;20061;-76
2021/01/04 12:15:14;;;;;;;1.15;0.85;;;4.10;99.90;;;;;;5007940;28;20049;-78
2021/01/04 12:17:40;;;;;;;1.60;1.00;;;4.10;99.90;;;;;;4990201;28;20040;-77
2021/01/04 12:20:07;;;;;;;0.52;0.52;;;4.10;99.90;;;;;;4990471;28;20030;-77
2021/01/04 12:22:32;;;;;;;0.85;0.50;;;4.10;99.90;;;;;;4980177;28;20037;-77
2021/01/04 12:24:58;;;;;;;0.60;0.35;;;4.10;99.90;;;;;;4970650;28;20094;-78
2021/01/04 12:27:24;;;;;;;7.97;0.82;;;4.10;99.90;;;;;;4970886;28;20058;-79
2021/01/04 12:29:50;;;;;;;0.82;0.77;;;4.10;99.90;;;;;;4970944;28;20069;-79
2021/01/04 12:32:19;;;;;;;3.25;1.13;;;4.10;99.90;;;;;;4971161;28;20035;-77
2021/01/04 12:34:45;;;;;;;1.38;0.80;;;4.10;99.90;;;;;;4970230;28;20034;-76
2021/01/04 12:37:11;;;;;;;2.58;0.80;;;4.10;99.90;;;;;;4986481;28;20035;-77
2021/01/04 12:39:37;;;;;;;0.63;0.47;;;4.30;99.90;;;;;;4978467;28;20061;-76
2021/01/04 12:42:04;;;;;;;1.02;0.40;;;4.20;99.90;;;;;;5007397;28;20086;-76
2021/01/04 12:44:30;;;;;;;1.55;0.65;;;4.20;99.90;;;;;;4989736;28;20062;-76
2021/01/04 12:46:55;;;;;;;0.57;0.40;;;4.20;99.90;;;;;;4989159;28;20034;-79
2021/01/04 12:49:23;;;;;;;0.95;0.73;;;4.20;99.90;;;;;;4985358;28;20023;-80
2021/01/04 12:51:54;;;;;;;0.60;0.40;;;4.20;99.90;;;;;;4986409;28;20026;-76
2021/01/04 12:54:23;;;;;;;0.50;0.40;;;4.30;99.90;;;;;;4969865;28;20026;-78
2021/01/04 12:56:51;;;;;;;0.30;0.20;;;4.20;99.90;;;;;;4970483;28;20026;-79
2021/01/04 12:59:19;;;;;;;1.58;0.55;;;4.20;99.90;;;;;;4987898;28;20479;-77
2021/01/04 13:01:51;;;;;;;2.25;0.82;;;4.20;99.90;;;;;;4969372;28;20027;-78
2021/01/04 13:04:22;;;;;;;7.05;1.02;;;4.20;99.90;;;;;;4987185;28;20093;-77
2021/01/04 13:06:48;;;;;;;1.13;0.38;;;4.20;99.90;;;;;;4968112;28;20416;-77
2021/01/04 13:09:15;;;;;;;0.55;0.50;;;4.20;99.90;;;;;;4986186;28;20073;-76
2021/01/04 13:11:46;;;;;;;2.13;0.50;;;4.20;99.90;;;;;;4969114;28;20042;-77
2021/01/04 13:14:12;;;;;;;1.13;0.50;;;4.10;99.90;;;;;;4984535;28;20023;-76
2021/01/04 13:16:38;;;;;;;3.47;0.60;;;4.10;99.90;;;;;;4985741;28;20101;-78
2021/01/04 13:19:06;;;;;;;0.70;0.60;;;4.10;99.90;;;;;;4969396;28;20039;-77
2021/01/04 13:21:33;;;;;;;2.53;1.35;;;4.10;99.90;;;;;;4986745;28;20046;-77
2021/01/04 13:23:59;;;;;;;2.53;0.57;;;4.10;99.90;;;;;;4987008;28;20663;-78
2021/01/04 13:26:25;;;;;;;3.08;0.73;;;4.00;99.90;;;;;;4987298;28;20026;-78
2021/01/04 13:28:50;;;;;;;1.85;0.80;;;4.00;99.90;;;;;;4987126;28;20481;-77
2021/01/04 13:31:25;;;;;;;1.92;0.80;;;4.10;99.90;;;;;;4987624;28;20055;-76
2021/01/04 13:33:50;;;;;;;0.93;0.77;;;4.10;99.90;;;;;;4987004;28;20030;-77
2021/01/04 13:36:17;;;;;;;1.35;0.50;;;4.00;99.90;;;;;;4987274;28;20038;-76
2021/01/04 13:38:43;;;;;;;1.38;0.63;;;4.10;99.90;;;;;;4986816;28;20081;-77
2021/01/04 13:41:08;;;;;;;1.60;0.68;;;4.10;99.90;;;;;;4969617;28;20027;-77
2021/01/04 13:43:34;;;;;;;0.82;0.60;;;4.10;99.90;;;;;;4985186;28;20026;-77
2021/01/04 13:45:59;;;;;;;1.52;0.57;;;4.10;99.90;;;;;;4969616;28;20091;-77
2021/01/04 13:48:25;;;;;;;2.50;0.73;;;4.00;99.90;;;;;;4986790;28;20026;-77